createdAt,value
2019-06-07T00:00:45.418Z,99.10
2019-06-07T00:03:24.897Z,99.10
2019-06-07T00:05:44.979Z,99.30
2019-06-07T00:08:22.580Z,99.30
2019-06-07T00:10:44.892Z,99.30
2019-06-07T00:13:17.096Z,99.30
2019-06-07T00:15:44.196Z,99.30
2019-06-07T00:18:15.082Z,99.40
2019-06-07T00:23:25.215Z,99.30
2019-06-07T00:25:54.052Z,99.30
2019-06-07T00:28:23.220Z,99.30
2019-06-07T00:30:52.848Z,99.40
2019-06-07T00:33:24.805Z,99.40
2019-06-07T00:35:52.769Z,99.60
2019-06-07T00:38:22.071Z,99.80
2019-06-07T00:40:51.156Z,99.80
2019-06-07T00:43:26.094Z,99.80
2019-06-07T00:45:50.554Z,99.90
2019-06-07T00:48:30.973Z,99.90
2019-06-07T00:50:51.945Z,99.90
2019-06-07T00:53:31.053Z,99.80
2019-06-07T00:55:51.254Z,99.30
2019-06-07T00:58:24.722Z,99.40
2019-06-07T01:00:51.055Z,99.40
2019-06-07T01:03:23.803Z,99.40
2019-06-07T01:05:50.833Z,99.40
2019-06-07T01:08:22.739Z,99.30
2019-06-07T01:10:54.003Z,99.30
2019-06-07T01:13:24.101Z,99.20
2019-06-07T01:15:51.991Z,99.40
2019-06-07T01:18:41.216Z,99.50
2019-06-07T01:20:51.767Z,99.40
2019-06-07T01:23:59.847Z,99.30
2019-06-07T01:25:51.456Z,99.50
2019-06-07T01:28:21.403Z,99.10
2019-06-07T01:30:51.568Z,99.00
2019-06-07T01:33:21.478Z,99.00
2019-06-07T01:35:51.371Z,99.10
2019-06-07T01:38:22.843Z,99.30
2019-06-07T01:40:50.652Z,99.40
2019-06-07T01:43:26.114Z,99.50
2019-06-07T01:45:50.136Z,99.80
2019-06-07T01:48:22.753Z,99.90
2019-06-07T01:50:49.596Z,99.90
2019-06-07T01:53:22.017Z,99.90
2019-06-07T01:55:49.999Z,99.90
2019-06-07T01:58:19.839Z,99.90
2019-06-07T02:00:49.600Z,99.90
2019-06-07T02:03:20.997Z,99.90
2019-06-07T02:05:48.915Z,99.90
2019-06-07T02:08:20.105Z,99.90
2019-06-07T02:10:48.398Z,99.90
2019-06-07T02:13:17.238Z,99.90
2019-06-07T02:15:46.502Z,99.90
2019-06-07T02:18:15.520Z,99.80
2019-06-07T02:20:44.331Z,99.80
2019-06-07T02:23:14.482Z,99.80
2019-06-07T02:25:50.205Z,99.90
2019-06-07T02:28:38.422Z,99.90
2019-06-07T02:30:58.422Z,99.90
2019-06-07T02:33:15.382Z,99.90
2019-06-07T02:35:44.442Z,99.90
2019-06-07T02:38:13.464Z,99.90
2019-06-07T02:40:42.508Z,99.90
2019-06-07T02:43:11.307Z,99.90
2019-06-07T02:45:43.588Z,99.90
2019-06-07T02:48:11.170Z,99.90
2019-06-07T02:50:40.042Z,99.90
2019-06-07T02:53:10.231Z,99.90
2019-06-07T02:56:26.937Z,99.90
2019-06-07T02:58:09.702Z,99.90
2019-06-07T03:01:05.544Z,99.90
2019-06-07T03:03:15.324Z,99.90
2019-06-07T03:05:44.979Z,99.90
2019-06-07T03:08:14.500Z,99.90
2019-06-07T03:10:45.534Z,99.90
2019-06-07T03:13:19.439Z,99.90
2019-06-07T03:15:50.340Z,99.90
2019-06-07T03:18:41.624Z,99.90
2019-06-07T03:21:13.916Z,99.90
2019-06-07T03:23:44.457Z,99.90
2019-06-07T03:26:14.847Z,99.90
2019-06-07T03:28:44.154Z,99.90
2019-06-07T03:31:12.946Z,99.90
2019-06-07T03:33:45.067Z,99.90
2019-06-07T03:36:23.386Z,99.90
2019-06-07T03:38:42.872Z,99.90
2019-06-07T03:41:11.735Z,99.90
2019-06-07T03:43:40.956Z,99.90
2019-06-07T03:46:10.252Z,99.90
2019-06-07T03:48:41.068Z,99.90
2019-06-07T03:51:23.936Z,99.90
2019-06-07T03:53:40.800Z,99.90
2019-06-07T03:56:10.104Z,99.90
2019-06-07T03:58:49.646Z,99.90
2019-06-07T04:01:12.695Z,99.90
2019-06-07T04:03:50.661Z,99.90
2019-06-07T04:06:12.751Z,99.90
2019-06-07T04:08:42.324Z,99.90
2019-06-07T04:11:11.286Z,99.90
2019-06-07T04:13:42.762Z,99.90
2019-06-07T04:16:11.601Z,99.90
2019-06-07T04:18:42.261Z,99.90
2019-06-07T04:21:10.961Z,99.90
2019-06-07T04:23:45.245Z,99.90
2019-06-07T04:26:10.820Z,99.90
2019-06-07T04:29:30.771Z,99.90
2019-06-07T04:31:10.743Z,99.90
2019-06-07T04:33:43.195Z,99.90
2019-06-07T04:36:10.822Z,99.90
2019-06-07T04:38:42.581Z,99.90
2019-06-07T04:41:12.127Z,99.90
2019-06-07T04:43:43.041Z,99.90
2019-06-07T04:46:12.869Z,99.90
2019-06-07T04:48:43.835Z,99.90
2019-06-07T04:51:15.111Z,99.90
2019-06-07T04:53:44.535Z,99.90
2019-06-07T04:56:13.535Z,99.90
2019-06-07T04:58:43.255Z,99.90
2019-06-07T05:01:26.848Z,99.90
2019-06-07T05:03:44.362Z,99.90
2019-06-07T05:06:13.420Z,99.90
2019-06-07T05:08:43.881Z,99.90
2019-06-07T05:11:12.845Z,99.90
2019-06-07T05:13:43.985Z,99.90
2019-06-07T05:16:12.874Z,99.90
2019-06-07T05:18:43.287Z,99.90
2019-06-07T05:21:12.552Z,99.90
2019-06-07T05:24:05.597Z,99.90
2019-06-07T05:26:12.094Z,99.90
2019-06-07T05:28:42.784Z,99.90
2019-06-07T05:31:11.588Z,99.90
2019-06-07T05:33:43.230Z,99.90
2019-06-07T05:36:11.344Z,99.90
2019-06-07T05:38:44.731Z,99.90
2019-06-07T05:41:12.016Z,99.90
2019-06-07T05:43:49.478Z,99.90
2019-06-07T05:46:11.518Z,99.90
2019-06-07T05:48:42.483Z,99.90
2019-06-07T05:51:11.982Z,99.90
2019-06-07T05:53:43.169Z,99.90
2019-06-07T05:56:14.451Z,99.90
2019-06-07T05:58:44.694Z,99.90
2019-06-07T06:01:42.045Z,99.90
2019-06-07T06:03:48.115Z,99.90
2019-06-07T06:06:15.694Z,99.90
2019-06-07T06:08:45.354Z,99.90
2019-06-07T06:11:15.587Z,99.90
2019-06-07T06:14:06.529Z,99.60
2019-06-07T06:16:23.199Z,99.60
2019-06-07T06:18:56.686Z,99.90
2019-06-07T06:21:29.629Z,99.30
2019-06-07T06:23:59.219Z,99.80
2019-06-07T06:26:28.486Z,99.70
2019-06-07T06:28:57.553Z,99.80
2019-06-07T06:31:26.378Z,98.80
2019-06-07T06:33:55.431Z,98.40
2019-06-07T06:36:24.771Z,98.40
2019-06-07T06:38:57.405Z,98.10
2019-06-07T06:41:26.286Z,97.80
2019-06-07T06:43:55.307Z,98.50
2019-06-07T06:46:38.166Z,96.80
2019-06-07T06:48:55.834Z,96.90
2019-06-07T06:51:24.954Z,97.50
2019-06-07T06:53:53.974Z,96.10
2019-06-07T06:56:23.118Z,96.40
2019-06-07T06:59:34.136Z,95.60
2019-06-07T07:01:24.147Z,95.60
2019-06-07T07:04:10.542Z,96.30
2019-06-07T07:06:26.699Z,94.70
2019-06-07T07:08:57.362Z,95.40
2019-06-07T07:11:26.318Z,95.10
2019-06-07T07:13:56.856Z,93.90
2019-06-07T07:16:25.869Z,93.80
2019-06-07T07:18:54.938Z,93.00
2019-06-07T07:21:24.011Z,93.20
2019-06-07T07:24:19.499Z,93.20
2019-06-07T07:26:23.713Z,92.80
2019-06-07T07:28:57.454Z,93.50
2019-06-07T07:31:25.137Z,93.30
2019-06-07T07:36:38.611Z,92.00
2019-06-07T07:39:03.494Z,92.10
2019-06-07T07:41:26.945Z,92.40
2019-06-07T07:44:05.527Z,92.80
2019-06-07T07:46:29.502Z,92.40
2019-06-07T07:48:56.960Z,91.40
2019-06-07T07:51:26.004Z,91.20
2019-06-07T07:54:09.383Z,91.70
2019-06-07T07:56:25.752Z,92.30
2019-06-07T07:59:00.625Z,90.60
2019-06-07T08:01:24.994Z,90.70
2019-06-07T08:03:54.968Z,90.70
2019-06-07T08:06:24.794Z,90.90
2019-06-07T08:08:55.892Z,91.00
2019-06-07T08:11:24.527Z,91.10
2019-06-07T08:13:57.005Z,91.00
2019-06-07T08:16:24.359Z,90.60
2019-06-07T08:18:57.115Z,91.70
2019-06-07T08:21:26.551Z,92.20
2019-06-07T08:24:00.396Z,90.30
2019-06-07T08:26:26.122Z,91.20
2019-06-07T08:28:58.884Z,91.90
2019-06-07T08:31:25.698Z,90.20
2019-06-07T08:33:58.057Z,89.80
2019-06-07T08:36:40.723Z,90.20
2019-06-07T08:39:00.517Z,90.80
2019-06-07T08:41:26.331Z,90.80
2019-06-07T08:43:57.835Z,91.60
2019-06-07T08:46:25.917Z,91.70
2019-06-07T08:48:57.146Z,91.30
2019-06-07T08:51:26.092Z,90.10
2019-06-07T08:54:20.617Z,91.50
2019-06-07T08:56:25.396Z,90.00
2019-06-07T08:58:56.886Z,90.60
2019-06-07T09:01:24.996Z,89.70
2019-06-07T09:03:59.492Z,90.40
2019-06-07T09:07:01.755Z,90.50
2019-06-07T09:08:58.129Z,90.50
2019-06-07T09:11:26.115Z,90.50
2019-06-07T09:13:57.223Z,87.90
2019-06-07T09:16:25.955Z,86.00
2019-06-07T09:18:56.071Z,85.70
2019-06-07T09:21:25.369Z,84.80
2019-06-07T09:23:56.476Z,84.40
2019-06-07T09:26:25.800Z,84.30
2019-06-07T09:28:57.928Z,88.00
2019-06-07T09:31:50.727Z,85.50
2019-06-07T09:34:04.077Z,84.40
2019-06-07T09:36:27.805Z,84.70
2019-06-07T09:38:59.507Z,86.80
2019-06-07T09:41:46.325Z,82.10
2019-06-07T09:44:18.364Z,83.30
2019-06-07T09:46:28.327Z,82.00
2019-06-07T09:49:26.135Z,82.70
2019-06-07T09:51:28.318Z,79.30
2019-06-07T09:53:58.511Z,81.10
2019-06-07T09:56:28.154Z,81.70
2019-06-07T09:58:59.451Z,79.50
2019-06-07T10:01:27.667Z,78.00
2019-06-07T10:03:58.758Z,78.20
2019-06-07T10:06:26.963Z,79.70
2019-06-07T10:11:26.437Z,80.30
2019-06-07T10:13:55.778Z,80.60
2019-06-07T10:16:24.770Z,78.20
2019-06-07T10:18:53.778Z,81.50
2019-06-07T10:21:22.850Z,75.70
2019-06-07T10:23:51.650Z,78.70
2019-06-07T10:26:20.627Z,78.10
2019-06-07T10:28:53.272Z,79.50
2019-06-07T10:31:19.864Z,78.70
2019-06-07T10:33:50.294Z,77.20
2019-06-07T10:36:19.150Z,75.50
2019-06-07T10:38:47.926Z,78.30
2019-06-07T10:41:16.670Z,76.10
2019-06-07T10:43:45.511Z,77.80
2019-06-07T10:46:14.744Z,75.20
2019-06-07T10:48:43.509Z,76.50
2019-06-07T10:51:14.624Z,76.10
2019-06-07T10:53:42.827Z,74.20
2019-06-07T10:56:13.408Z,78.40
2019-06-07T10:58:42.667Z,73.90
2019-06-07T11:01:12.852Z,75.10
2019-06-07T11:03:42.251Z,78.20
2019-06-07T11:06:12.229Z,76.00
2019-06-07T11:08:41.654Z,74.50
2019-06-07T11:11:10.431Z,78.00
2019-06-07T11:13:39.243Z,75.10
2019-06-07T11:16:08.809Z,74.50
2019-06-07T11:18:37.659Z,75.90
2019-06-07T11:21:06.400Z,76.10
2019-06-07T11:23:35.415Z,74.10
2019-06-07T11:26:04.407Z,74.70
2019-06-07T11:28:33.455Z,74.60
2019-06-07T11:31:02.193Z,80.50
2019-06-07T11:33:30.946Z,77.30
2019-06-07T11:35:59.698Z,75.20
2019-06-07T11:38:28.747Z,69.90
2019-06-07T11:40:57.799Z,73.90
2019-06-07T11:43:26.612Z,70.70
2019-06-07T11:45:55.364Z,71.70
2019-06-07T11:48:24.179Z,72.00
2019-06-07T11:50:52.939Z,72.60
2019-06-07T11:53:21.666Z,73.70
2019-06-07T11:55:50.678Z,69.60
2019-06-07T11:58:21.734Z,71.20
2019-06-07T12:00:50.234Z,69.20
2019-06-07T12:03:19.019Z,71.60
2019-06-07T12:05:48.061Z,70.30
2019-06-07T12:08:18.111Z,72.30
2019-06-07T12:10:47.421Z,69.50
2019-06-07T12:13:17.410Z,70.40
2019-06-07T12:15:49.146Z,67.80
2019-06-07T12:18:17.607Z,70.80
2019-06-07T12:20:46.384Z,67.40
2019-06-07T12:23:16.034Z,65.40
2019-06-07T12:25:45.187Z,69.50
2019-06-07T12:28:14.636Z,62.40
2019-06-07T12:30:43.508Z,66.50
2019-06-07T12:33:13.442Z,65.80
2019-06-07T12:35:42.769Z,67.10
2019-06-07T12:38:12.277Z,65.10
2019-06-07T12:40:41.495Z,66.70
2019-06-07T12:43:10.402Z,64.70
2019-06-07T12:45:44.826Z,65.00
2019-06-07T12:48:10.175Z,65.50
2019-06-07T12:50:43.104Z,65.90
2019-06-07T12:53:09.732Z,66.00
2019-06-07T12:55:38.816Z,67.20
2019-06-07T12:58:07.626Z,69.90
2019-06-07T13:00:36.447Z,69.90
2019-06-07T13:03:05.566Z,62.40
2019-06-07T13:05:34.336Z,64.00
2019-06-07T13:08:03.335Z,62.50
2019-06-07T13:10:32.099Z,69.40
2019-06-07T13:13:00.864Z,64.40
2019-06-07T13:15:29.601Z,64.90
2019-06-07T13:17:58.365Z,64.30
2019-06-07T13:20:28.825Z,63.70
2019-06-07T13:22:57.919Z,63.90
2019-06-07T13:25:43.460Z,64.40
2019-06-07T13:27:57.284Z,66.80
2019-06-07T13:30:26.279Z,64.70
2019-06-07T13:32:55.295Z,62.20
2019-06-07T13:35:25.349Z,64.50
2019-06-07T13:37:54.545Z,67.90
2019-06-07T13:40:26.972Z,63.90
2019-06-07T13:42:55.747Z,64.90
2019-06-07T13:45:25.827Z,62.20
2019-06-07T13:47:54.991Z,64.80
2019-06-07T13:50:24.286Z,65.00
2019-06-07T13:52:53.166Z,65.60
2019-06-07T13:55:22.022Z,61.50
2019-06-07T13:57:51.126Z,63.20
2019-06-07T14:00:23.236Z,64.20
2019-06-07T14:02:52.539Z,60.10
2019-06-07T14:05:23.035Z,60.20
2019-06-07T14:07:51.968Z,66.10
2019-06-07T14:10:23.615Z,63.90
2019-06-07T14:12:53.407Z,64.90
2019-06-07T14:15:24.267Z,62.50
2019-06-07T14:17:53.151Z,58.60
2019-06-07T14:20:28.609Z,59.50
2019-06-07T14:22:55.177Z,63.10
2019-06-07T14:25:25.140Z,66.00
2019-06-07T14:27:54.088Z,64.90
2019-06-07T14:30:23.951Z,63.50
2019-06-07T14:32:53.057Z,62.60
2019-06-07T14:35:22.515Z,60.80
2019-06-07T14:37:51.583Z,62.20
2019-06-07T14:40:21.248Z,63.80
2019-06-07T14:42:50.240Z,65.60
2019-06-07T14:45:20.019Z,64.70
2019-06-07T14:47:48.997Z,63.30
2019-06-07T14:50:21.992Z,65.60
2019-06-07T14:52:51.571Z,64.10
2019-06-07T14:55:21.964Z,65.80
2019-06-07T14:57:51.064Z,64.50
2019-06-07T15:00:21.915Z,66.00
2019-06-07T15:02:50.955Z,66.70
2019-06-07T15:05:23.174Z,64.70
2019-06-07T15:07:52.199Z,64.50
2019-06-07T15:10:23.505Z,64.80
2019-06-07T15:12:52.794Z,60.30
2019-06-07T15:15:21.635Z,61.50
2019-06-07T15:17:50.387Z,64.80
2019-06-07T15:20:19.249Z,61.90
2019-06-07T15:22:48.037Z,64.90
2019-06-07T15:25:17.072Z,63.20
2019-06-07T15:27:45.906Z,64.10
2019-06-07T15:30:15.307Z,62.20
2019-06-07T15:32:44.316Z,61.30
2019-06-07T15:35:13.851Z,65.40
2019-06-07T15:37:43.999Z,62.00
2019-06-07T15:40:13.694Z,60.90
2019-06-07T15:42:52.117Z,62.60
2019-06-07T15:45:13.882Z,60.70
2019-06-07T15:47:43.156Z,61.40
2019-06-07T15:50:12.450Z,61.80
2019-06-07T15:52:43.342Z,60.80
2019-06-07T15:55:12.808Z,62.10
2019-06-07T15:57:42.565Z,62.00
2019-06-07T16:00:12.669Z,62.40
2019-06-07T16:02:41.948Z,62.00
2019-06-07T16:05:13.230Z,63.70
2019-06-07T16:07:43.234Z,62.20
2019-06-07T16:10:12.883Z,63.70
2019-06-07T16:12:59.127Z,63.50
2019-06-07T16:15:13.592Z,61.60
2019-06-07T16:17:43.778Z,62.30
2019-06-07T16:20:14.257Z,64.50
2019-06-07T16:22:44.017Z,65.60
2019-06-07T16:25:13.974Z,65.00
2019-06-07T16:27:44.702Z,62.10
2019-06-07T16:30:14.302Z,62.90
2019-06-07T16:32:44.145Z,62.60
2019-06-07T16:35:14.052Z,65.40
2019-06-07T16:37:44.503Z,63.60
2019-06-07T16:40:15.814Z,66.20
2019-06-07T16:42:45.398Z,66.90
2019-06-07T16:45:15.102Z,62.50
2019-06-07T16:47:47.177Z,61.90
2019-06-07T16:50:15.299Z,65.30
2019-06-07T16:52:44.487Z,62.00
2019-06-07T16:55:15.150Z,62.20
2019-06-07T16:57:45.166Z,63.80
2019-06-07T17:00:15.165Z,64.50
2019-06-07T17:02:44.970Z,65.20
2019-06-07T17:05:15.624Z,65.80
2019-06-07T17:07:46.343Z,65.20
2019-06-07T17:10:16.831Z,65.10
2019-06-07T17:12:46.970Z,66.40
2019-06-07T17:15:17.713Z,65.80
2019-06-07T17:17:47.084Z,66.70
2019-06-07T17:20:19.071Z,65.80
2019-06-07T17:22:47.863Z,67.70
2019-06-07T17:25:17.053Z,66.10
2019-06-07T17:27:46.359Z,68.00
2019-06-07T17:30:16.513Z,68.40
2019-06-07T17:32:53.850Z,67.40
2019-06-07T17:35:15.966Z,67.80
2019-06-07T17:37:46.313Z,69.60
2019-06-07T17:40:15.983Z,70.90
2019-06-07T17:42:45.092Z,70.40
2019-06-07T17:45:15.776Z,71.10
2019-06-07T17:47:45.995Z,71.30
2019-06-07T17:50:16.130Z,71.70
2019-06-07T17:52:45.937Z,73.00
2019-06-07T17:55:15.295Z,73.80
2019-06-07T17:57:44.360Z,73.10
2019-06-07T18:00:28.113Z,74.70
2019-06-07T18:02:46.769Z,75.30
2019-06-07T18:05:15.805Z,76.20
2019-06-07T18:07:45.777Z,76.60
2019-06-07T18:10:22.627Z,77.70
2019-06-07T18:12:52.874Z,78.50
2019-06-07T18:15:26.136Z,80.10
2019-06-07T18:17:54.911Z,82.00
2019-06-07T18:20:24.875Z,81.90
2019-06-07T18:22:53.667Z,83.50
2019-06-07T18:25:22.504Z,81.60
2019-06-07T18:27:52.653Z,77.10
2019-06-07T18:30:21.852Z,76.10
2019-06-07T18:32:50.962Z,80.40
2019-06-07T18:35:19.822Z,85.00
2019-06-07T18:37:49.009Z,89.10
2019-06-07T18:40:18.153Z,90.90
2019-06-07T18:42:47.134Z,93.20
2019-06-07T18:45:16.374Z,95.80
2019-06-07T18:47:45.178Z,98.00
2019-06-07T18:50:14.329Z,99.70
2019-06-07T18:52:44.860Z,99.90
2019-06-07T18:55:14.701Z,99.90
2019-06-07T18:57:43.432Z,99.90
2019-06-07T19:00:13.018Z,99.90
2019-06-07T19:02:42.061Z,99.90
2019-06-07T19:05:11.484Z,99.90
2019-06-07T19:07:40.456Z,99.90
2019-06-07T19:10:09.830Z,99.90
2019-06-07T19:12:38.700Z,99.90
2019-06-07T19:15:09.034Z,99.90
2019-06-07T19:17:37.970Z,99.90
2019-06-07T19:20:07.451Z,99.80
2019-06-07T19:22:36.503Z,99.90
2019-06-07T19:25:06.148Z,99.90
2019-06-07T19:27:35.180Z,99.90
2019-06-07T19:30:05.094Z,99.00
2019-06-07T19:32:33.844Z,98.60
2019-06-07T19:35:02.756Z,98.80
2019-06-07T19:37:31.804Z,99.20
2019-06-07T19:40:00.582Z,99.50
2019-06-07T19:42:29.321Z,99.90
2019-06-07T19:45:16.767Z,99.60
2019-06-07T19:47:29.093Z,98.90
2019-06-07T19:49:58.792Z,99.90
2019-06-07T19:52:27.616Z,98.70
2019-06-07T19:54:57.555Z,98.40
2019-06-07T19:57:26.596Z,98.80
2019-06-07T19:59:55.501Z,99.90
2019-06-07T20:02:24.375Z,97.90
2019-06-07T20:04:59.183Z,99.30
2019-06-07T20:07:25.177Z,99.40
2019-06-07T20:09:54.494Z,98.90
2019-06-07T20:12:23.610Z,98.60
2019-06-07T20:14:55.282Z,98.90
2019-06-07T20:17:22.848Z,99.80
2019-06-07T20:19:51.935Z,99.50
2019-06-07T20:22:20.977Z,99.70
2019-06-07T20:24:49.702Z,99.70
2019-06-07T20:27:18.715Z,99.80
2019-06-07T20:29:47.456Z,99.90
2019-06-07T20:32:16.189Z,99.90
2019-06-07T20:34:45.200Z,99.40
2019-06-07T20:37:14.077Z,98.40
2019-06-07T20:39:42.834Z,96.10
2019-06-07T20:42:11.686Z,96.30
2019-06-07T20:44:40.462Z,97.50
2019-06-07T20:47:10.029Z,97.00
2019-06-07T20:49:38.808Z,96.80
2019-06-07T20:52:08.656Z,97.10
2019-06-07T20:54:37.619Z,94.90
2019-06-07T20:57:06.826Z,95.60
2019-06-07T20:59:35.631Z,97.00
2019-06-07T21:02:09.533Z,97.00
2019-06-07T21:04:38.856Z,97.00
2019-06-07T21:07:08.135Z,97.20
2019-06-07T21:09:37.988Z,97.80
2019-06-07T21:12:07.944Z,97.80
2019-06-07T21:14:36.838Z,97.60
2019-06-07T21:17:06.199Z,98.40
2019-06-07T21:19:35.358Z,99.50
2019-06-07T21:22:04.629Z,99.30
2019-06-07T21:24:33.468Z,99.90
2019-06-07T21:27:03.509Z,99.40
2019-06-07T21:29:32.447Z,99.00
2019-06-07T21:32:01.343Z,98.90
2019-06-07T21:34:30.430Z,97.70
2019-06-07T21:36:59.683Z,96.70
2019-06-07T21:39:28.475Z,99.30
2019-06-07T21:41:57.336Z,98.40
2019-06-07T21:44:26.169Z,99.90
2019-06-07T21:46:54.915Z,99.50
2019-06-07T21:49:23.717Z,98.50
2019-06-07T21:51:52.465Z,97.60
2019-06-07T21:54:21.350Z,98.90
2019-06-07T21:56:50.180Z,98.90
2019-06-07T21:59:19.192Z,99.30
2019-06-07T22:01:48.089Z,98.90
2019-06-07T22:04:16.850Z,99.40
2019-06-07T22:06:45.671Z,99.70
2019-06-07T22:09:14.869Z,98.20
2019-06-07T22:11:43.915Z,97.60
2019-06-07T22:14:12.651Z,96.50
2019-06-07T22:16:41.486Z,96.00
2019-06-07T22:19:10.827Z,95.90
2019-06-07T22:21:39.680Z,96.20
2019-06-07T22:24:08.878Z,95.30
2019-06-07T22:26:37.719Z,95.80
2019-06-07T22:29:06.523Z,94.70
2019-06-07T22:31:35.344Z,94.70
2019-06-07T22:34:06.821Z,95.60
2019-06-07T22:36:35.843Z,95.70
2019-06-07T22:39:07.638Z,95.10
2019-06-07T22:41:36.414Z,95.80
2019-06-07T22:44:07.021Z,95.50
2019-06-07T22:46:37.680Z,96.50
2019-06-07T22:49:07.096Z,95.60
2019-06-07T22:51:36.284Z,95.70
2019-06-07T22:54:05.318Z,96.60
2019-06-07T22:56:42.452Z,94.50
2019-06-07T22:59:15.318Z,95.30
2019-06-07T23:01:42.602Z,94.60
2019-06-07T23:04:12.508Z,94.90
2019-06-07T23:06:41.426Z,95.60
2019-06-07T23:09:10.827Z,96.30
2019-06-07T23:11:39.885Z,95.40
2019-06-07T23:14:09.209Z,96.70
2019-06-07T23:16:54.290Z,94.40
2019-06-07T23:19:10.097Z,95.90
2019-06-07T23:21:38.938Z,95.10
2019-06-07T23:24:07.683Z,94.10
2019-06-07T23:26:36.492Z,94.00
2019-06-07T23:29:05.660Z,94.00
2019-06-07T23:31:34.459Z,94.10
2019-06-07T23:34:03.339Z,95.30
2019-06-07T23:36:32.350Z,94.80
2019-06-07T23:39:01.287Z,95.30
2019-06-07T23:41:30.114Z,96.40
2019-06-07T23:43:58.850Z,96.40
2019-06-07T23:46:27.790Z,96.60
2019-06-07T23:48:59.570Z,96.30
2019-06-07T23:51:28.874Z,97.10
2019-06-07T23:54:01.220Z,97.20
2019-06-07T23:56:30.571Z,96.30
2019-06-07T23:58:59.477Z,97.10
